Time;durP1;ratioP1;P1;durP2;ratioP2;P2;SDS_P1;SDS_P2;PMS_P1;PMS_P2;Temp;Humidity;BMP_temperature;BMP_pressure;BME280_temperature;BME280_humidity;BME280_pressure;Samples;Min_cycle;Max_cycle;Signal;HPM_P1;HPM_P2
2023/04/14 00:02:06;;;;;;;8.40;2.15;;;5.50;99.90;;;;;;4921277;29;20044;-81
2023/04/14 00:04:32;;;;;;;7.28;1.95;;;5.50;99.90;;;;;;4937220;29;20138;-81
2023/04/14 00:06:58;;;;;;;9.13;2.10;;;5.50;99.90;;;;;;4936798;29;20044;-82
2023/04/14 00:09:25;;;;;;;6.80;2.08;;;5.50;99.90;;;;;;4937341;29;20403;-82
2023/04/14 00:11:51;;;;;;;5.97;2.00;;;5.40;99.90;;;;;;4905302;29;20060;-82
2023/04/14 00:14:16;;;;;;;7.68;2.10;;;5.40;99.90;;;;;;4937968;29;20098;-82
2023/04/14 00:16:42;;;;;;;6.22;1.75;;;5.40;99.90;;;;;;4936944;29;20135;-82
2023/04/14 00:19:08;;;;;;;6.40;2.10;;;5.40;99.90;;;;;;4936458;29;20055;-82
2023/04/14 00:21:34;;;;;;;6.82;1.85;;;5.30;99.90;;;;;;4920674;29;20051;-82
2023/04/14 00:23:59;;;;;;;7.43;2.30;;;5.30;99.90;;;;;;4921054;29;20063;-82
2023/04/14 00:26:25;;;;;;;8.18;2.22;;;5.30;99.90;;;;;;4937098;29;20373;-82
2023/04/14 00:28:51;;;;;;;6.05;2.10;;;5.30;99.90;;;;;;4936430;29;20407;-82
2023/04/14 00:31:17;;;;;;;5.85;1.85;;;5.20;99.90;;;;;;4936260;29;20054;-82
2023/04/14 00:33:42;;;;;;;6.47;2.00;;;5.30;99.90;;;;;;4937006;29;20059;-82
2023/04/14 00:36:08;;;;;;;5.72;1.80;;;5.20;99.90;;;;;;4904790;29;20134;-82
2023/04/14 00:38:34;;;;;;;8.77;2.10;;;5.20;99.90;;;;;;4936504;29;20047;-82
2023/04/14 00:41:00;;;;;;;6.63;2.05;;;5.20;99.90;;;;;;4920626;29;20055;-82
2023/04/14 00:43:25;;;;;;;6.63;2.10;;;5.10;99.90;;;;;;4936812;29;20051;-82
2023/04/14 00:45:51;;;;;;;7.43;2.08;;;5.10;99.90;;;;;;4936087;29;20059;-83
2023/04/14 00:48:18;;;;;;;6.75;2.05;;;5.00;99.90;;;;;;4920948;29;20047;-83
2023/04/14 00:50:45;;;;;;;6.97;2.00;;;5.00;99.90;;;;;;4920727;29;20051;-83
2023/04/14 00:53:12;;;;;;;6.15;2.25;;;5.00;99.90;;;;;;4936408;29;20090;-83
2023/04/14 00:55:39;;;;;;;7.07;1.95;;;5.00;99.90;;;;;;4920702;29;20051;-83
2023/04/14 00:58:04;;;;;;;5.95;1.80;;;5.00;99.90;;;;;;4904555;29;20048;-82
2023/04/14 01:00:33;;;;;;;6.78;2.25;;;5.00;99.90;;;;;;4935733;29;20050;-83
2023/04/14 01:02:59;;;;;;;5.47;1.98;;;4.70;99.90;;;;;;4936361;29;20051;-83
2023/04/14 01:05:25;;;;;;;6.75;1.80;;;4.50;99.90;;;;;;4936186;29;20074;-83
2023/04/14 01:07:51;;;;;;;7.45;2.05;;;4.30;99.90;;;;;;4936291;29;20103;-82
2023/04/14 01:10:17;;;;;;;7.10;2.10;;;4.20;99.90;;;;;;4936005;29;20400;-82
2023/04/14 01:13:10;;;;;;;6.38;2.00;;;4.20;99.90;;;;;;4936082;29;20054;-82
2023/04/14 01:15:59;;;;;;;6.13;1.95;;;4.30;99.90;;;;;;4920017;29;20052;-83
2023/04/14 01:18:31;;;;;;;6.65;2.08;;;4.30;99.90;;;;;;4935363;29;20147;-82
2023/04/14 01:21:06;;;;;;;6.45;2.03;;;4.30;99.90;;;;;;4935825;29;20050;-83
2023/04/14 01:24:05;;;;;;;6.07;2.05;;;4.40;99.90;;;;;;4935654;29;20115;-82
2023/04/14 01:26:33;;;;;;;7.88;2.00;;;4.30;99.90;;;;;;4933583;29;20064;-82
2023/04/14 01:29:02;;;;;;;5.07;1.80;;;4.30;99.90;;;;;;4935897;29;20062;-82
2023/04/14 01:31:37;;;;;;;5.30;1.80;;;4.40;99.90;;;;;;4934986;29;20061;-82
2023/04/14 01:34:12;;;;;;;6.72;1.80;;;4.40;99.90;;;;;;4935603;29;20049;-83
2023/04/14 01:36:47;;;;;;;6.15;1.80;;;4.50;99.90;;;;;;4935588;29;20095;-82
2023/04/14 01:39:19;;;;;;;6.63;1.90;;;4.50;99.90;;;;;;4935597;29;20048;-82
2023/04/14 01:41:48;;;;;;;5.28;1.70;;;4.60;99.90;;;;;;4935157;29;20040;-82
2023/04/14 01:44:18;;;;;;;6.80;2.00;;;4.60;99.90;;;;;;4935091;29;20511;-82
2023/04/14 01:46:45;;;;;;;4.93;1.70;;;4.60;99.90;;;;;;4935461;29;20503;-82
2023/04/14 01:49:11;;;;;;;5.18;1.80;;;4.70;99.90;;;;;;4935490;29;20412;-82
2023/04/14 01:51:41;;;;;;;6.60;1.77;;;4.80;99.90;;;;;;4903582;29;20102;-82
2023/04/14 01:54:10;;;;;;;6.43;1.90;;;4.70;99.90;;;;;;4934964;29;20056;-82
2023/04/14 01:56:38;;;;;;;6.20;2.38;;;4.80;99.90;;;;;;4935449;29;20047;-82
2023/04/14 01:59:05;;;;;;;6.22;1.80;;;4.80;99.90;;;;;;4935396;29;20391;-82
2023/04/14 02:01:33;;;;;;;8.15;2.00;;;4.80;99.90;;;;;;4935206;29;20047;-81
2023/04/14 02:04:01;;;;;;;5.50;1.80;;;4.80;99.90;;;;;;4934849;29;20044;-81
2023/04/14 02:06:30;;;;;;;7.10;2.30;;;4.80;99.90;;;;;;4935159;29;20056;-81
2023/04/14 02:09:04;;;;;;;8.45;2.42;;;4.80;99.90;;;;;;4919552;29;20078;-81
2023/04/14 02:11:33;;;;;;;5.75;2.03;;;4.80;99.90;;;;;;4935030;29;20043;-81
2023/04/14 02:13:59;;;;;;;6.43;2.00;;;4.80;99.90;;;;;;4935305;29;20623;-81
2023/04/14 02:16:26;;;;;;;5.78;2.30;;;4.70;99.90;;;;;;4934930;29;20488;-81
2023/04/14 02:18:52;;;;;;;7.50;2.30;;;4.50;99.90;;;;;;4934998;29;20079;-82
2023/04/14 02:21:21;;;;;;;5.85;2.50;;;4.30;99.90;;;;;;4934965;29;20487;-82
2023/04/14 02:23:47;;;;;;;5.35;1.90;;;4.20;99.90;;;;;;4935298;29;20052;-82
2023/04/14 02:26:15;;;;;;;5.28;1.90;;;4.20;99.90;;;;;;4919397;29;20051;-81
2023/04/14 02:28:48;;;;;;;5.85;2.08;;;4.30;99.90;;;;;;4935245;29;20071;-81
2023/04/14 02:31:20;;;;;;;8.02;2.70;;;4.30;99.90;;;;;;4935234;29;20052;-81
2023/04/14 02:33:53;;;;;;;7.03;2.58;;;4.40;99.90;;;;;;4934890;29;20044;-81
2023/04/14 02:36:32;;;;;;;6.82;2.22;;;4.50;99.90;;;;;;4935204;29;20404;-82
2023/04/14 02:39:02;;;;;;;7.43;2.05;;;4.50;99.90;;;;;;4918989;29;20048;-82
2023/04/14 02:41:30;;;;;;;10.00;2.80;;;4.60;99.90;;;;;;4935513;29;20047;-82
2023/04/14 02:44:08;;;;;;;9.05;3.17;;;4.60;99.90;;;;;;4938555;29;20075;-82
2023/04/14 02:46:40;;;;;;;9.77;3.22;;;4.80;99.90;;;;;;4938434;29;20056;-82
2023/04/14 02:49:08;;;;;;;8.07;3.03;;;4.90;99.90;;;;;;4938852;29;20058;-81
2023/04/14 02:51:35;;;;;;;8.60;3.00;;;5.00;99.90;;;;;;4938631;29;20395;-81
2023/04/14 02:54:03;;;;;;;7.95;2.80;;;5.00;99.90;;;;;;4938680;29;20056;-82
2023/04/14 02:56:29;;;;;;;6.50;2.90;;;4.90;99.90;;;;;;4938420;29;20048;-81
2023/04/14 02:58:56;;;;;;;8.48;3.00;;;4.90;99.90;;;;;;4922676;29;20512;-81
2023/04/14 03:01:24;;;;;;;8.98;3.22;;;4.80;99.90;;;;;;4938397;29;20507;-81
2023/04/14 03:03:52;;;;;;;7.45;2.92;;;4.80;99.90;;;;;;4938595;29;20052;-81
2023/04/14 03:06:18;;;;;;;8.23;2.45;;;4.80;99.90;;;;;;4922034;29;20056;-81
2023/04/14 03:08:44;;;;;;;7.03;2.80;;;4.70;99.90;;;;;;4938348;29;20052;-81
2023/04/14 03:11:13;;;;;;;6.25;2.50;;;4.70;99.90;;;;;;4938241;29;20051;-81
2023/04/14 03:13:40;;;;;;;6.32;2.50;;;4.70;99.90;;;;;;4938313;29;20130;-81
2023/04/14 03:16:08;;;;;;;7.82;2.20;;;4.70;99.90;;;;;;4938341;29;20496;-81
2023/04/14 03:18:35;;;;;;;7.97;2.80;;;4.80;99.90;;;;;;4922429;29;20052;-81
2023/04/14 03:21:02;;;;;;;7.50;2.70;;;4.70;99.90;;;;;;4937907;29;20212;-81
2023/04/14 03:23:29;;;;;;;7.40;2.53;;;4.70;99.90;;;;;;4937632;29;20190;-81
2023/04/14 03:25:56;;;;;;;6.93;2.65;;;4.70;99.90;;;;;;4906004;29;20050;-81
2023/04/14 03:28:27;;;;;;;7.78;3.08;;;4.60;99.90;;;;;;4937798;29;20055;-81
2023/04/14 03:30:54;;;;;;;7.88;2.50;;;4.60;99.90;;;;;;4937769;29;20624;-81
2023/04/14 03:33:26;;;;;;;5.85;2.38;;;4.60;99.90;;;;;;4937440;29;20055;-81
2023/04/14 03:35:55;;;;;;;7.47;2.60;;;4.60;99.90;;;;;;4937823;29;20057;-81
2023/04/14 03:38:25;;;;;;;6.60;2.63;;;4.60;99.90;;;;;;4937945;29;20161;-81
2023/04/14 03:40:52;;;;;;;6.05;2.30;;;4.50;99.90;;;;;;4937668;29;20104;-82
2023/04/14 03:43:21;;;;;;;6.10;2.28;;;4.50;99.90;;;;;;4937955;29;20395;-81
2023/04/14 03:45:48;;;;;;;7.47;2.38;;;4.50;99.90;;;;;;4937501;29;20475;-82
2023/04/14 03:48:17;;;;;;;8.93;3.40;;;4.50;99.90;;;;;;4937752;29;20059;-82
2023/04/14 03:50:47;;;;;;;7.15;2.72;;;4.50;99.90;;;;;;4937385;29;20051;-82
2023/04/14 03:53:16;;;;;;;7.18;2.97;;;4.40;99.90;;;;;;4936736;29;20102;-82
2023/04/14 03:55:45;;;;;;;10.07;2.85;;;4.30;99.90;;;;;;4937621;29;20053;-82
2023/04/14 03:58:13;;;;;;;5.25;2.30;;;4.30;99.90;;;;;;4937221;29;20056;-82
2023/04/14 04:00:39;;;;;;;7.10;2.70;;;4.30;99.90;;;;;;4937317;29;20138;-82
2023/04/14 04:03:05;;;;;;;6.43;2.50;;;4.30;99.90;;;;;;4921626;29;20054;-82
2023/04/14 04:05:32;;;;;;;7.35;2.70;;;4.30;99.90;;;;;;4905611;29;20051;-82
2023/04/14 04:08:02;;;;;;;8.82;3.00;;;4.30;99.90;;;;;;4937359;29;20055;-82
2023/04/14 04:10:33;;;;;;;7.07;2.60;;;4.30;99.90;;;;;;4937371;29;20066;-81
2023/04/14 04:13:11;;;;;;;7.97;3.25;;;4.30;99.90;;;;;;4921351;29;20130;-82
2023/04/14 04:15:38;;;;;;;6.93;2.58;;;4.30;99.90;;;;;;4921357;29;20522;-82
2023/04/14 04:18:07;;;;;;;8.40;2.72;;;4.20;99.90;;;;;;4936995;29;20051;-82
2023/04/14 04:20:36;;;;;;;7.82;2.80;;;4.20;99.90;;;;;;4921109;29;20044;-82
2023/04/14 04:23:05;;;;;;;7.22;2.55;;;4.20;99.90;;;;;;4937060;29;20415;-82
2023/04/14 04:25:32;;;;;;;7.68;2.92;;;4.10;99.90;;;;;;4937021;29;20399;-82
2023/04/14 04:28:02;;;;;;;8.40;3.00;;;4.10;99.90;;;;;;4936768;29;20047;-83
2023/04/14 04:30:35;;;;;;;6.63;2.20;;;4.10;99.90;;;;;;4921269;29;20087;-83
2023/04/14 04:33:02;;;;;;;6.47;2.40;;;4.10;99.90;;;;;;4921097;29;20138;-83
2023/04/14 04:35:28;;;;;;;6.88;2.45;;;4.00;99.90;;;;;;4936936;29;20048;-83
2023/04/14 04:37:56;;;;;;;6.80;2.70;;;4.10;99.90;;;;;;4921055;29;20075;-83
2023/04/14 04:40:22;;;;;;;6.47;2.70;;;4.10;99.90;;;;;;4936746;29;20107;-83
2023/04/14 04:42:48;;;;;;;8.45;2.60;;;4.10;99.90;;;;;;4936436;29;20444;-83
2023/04/14 04:45:28;;;;;;;6.45;2.50;;;4.10;99.90;;;;;;4920655;29;20512;-82
2023/04/14 04:47:54;;;;;;;7.40;2.50;;;4.10;99.90;;;;;;4935960;29;20066;-82
2023/04/14 04:50:20;;;;;;;6.18;2.30;;;4.20;99.90;;;;;;4920460;29;20055;-82
2023/04/14 04:52:48;;;;;;;7.18;2.40;;;4.20;99.90;;;;;;4920488;29;20055;-83
2023/04/14 04:55:14;;;;;;;7.20;2.35;;;4.20;99.90;;;;;;4936493;29;20047;-83
2023/04/14 04:57:40;;;;;;;6.22;2.70;;;4.20;99.90;;;;;;4936391;29;20059;-83
2023/04/14 05:00:07;;;;;;;7.25;2.83;;;4.30;99.90;;;;;;4936325;29;20051;-83
2023/04/14 05:02:33;;;;;;;7.57;3.10;;;4.30;99.90;;;;;;4905066;29;20063;-83
2023/04/14 05:04:59;;;;;;;7.38;2.80;;;4.30;99.90;;;;;;4920305;29;20059;-83
2023/04/14 05:07:24;;;;;;;7.95;3.25;;;4.20;99.90;;;;;;4935975;29;20500;-83
2023/04/14 05:09:50;;;;;;;6.45;3.17;;;4.20;99.90;;;;;;4936266;29;20058;-83
2023/04/14 05:12:16;;;;;;;6.20;2.58;;;4.20;99.90;;;;;;4904740;29;20510;-83
2023/04/14 05:14:42;;;;;;;7.75;2.80;;;4.20;99.90;;;;;;4919871;29;20090;-83
2023/04/14 05:17:07;;;;;;;7.38;2.45;;;4.20;99.90;;;;;;4936052;29;20101;-83
2023/04/14 05:19:33;;;;;;;6.70;2.90;;;4.30;99.90;;;;;;4919792;29;20539;-83
2023/04/14 05:21:59;;;;;;;6.90;2.70;;;4.30;99.90;;;;;;4935713;29;20044;-83
2023/04/14 05:24:24;;;;;;;7.43;2.90;;;4.40;99.90;;;;;;4936030;29;20074;-83
2023/04/14 05:26:50;;;;;;;9.50;3.92;;;4.40;99.90;;;;;;4920206;29;20055;-83
2023/04/14 05:29:16;;;;;;;7.80;3.10;;;4.40;99.90;;;;;;4935869;29;20093;-83
2023/04/14 05:31:45;;;;;;;9.02;4.68;;;4.50;99.90;;;;;;4935802;29;20488;-83
2023/04/14 05:34:10;;;;;;;10.98;4.50;;;4.60;99.90;;;;;;4935890;29;20138;-81
2023/04/14 05:36:36;;;;;;;11.95;4.40;;;4.80;99.90;;;;;;4935796;29;20441;-83
2023/04/14 05:39:02;;;;;;;10.88;4.70;;;5.00;99.90;;;;;;4920032;29;20501;-83
2023/04/14 05:41:28;;;;;;;11.13;5.05;;;5.20;99.90;;;;;;4935549;29;20059;-83
2023/04/14 05:43:53;;;;;;;10.23;4.60;;;5.40;99.90;;;;;;4919924;29;20485;-83
2023/04/14 05:46:19;;;;;;;15.65;8.80;;;5.70;99.90;;;;;;4919418;29;20059;-83
2023/04/14 05:48:45;;;;;;;14.23;7.10;;;5.80;99.90;;;;;;4935614;29;20051;-83
2023/04/14 05:51:11;;;;;;;9.73;5.10;;;5.90;99.90;;;;;;4935552;29;20059;-83
2023/04/14 05:53:36;;;;;;;11.23;5.10;;;5.90;99.90;;;;;;4916515;29;20051;-83
2023/04/14 05:56:05;;;;;;;13.23;5.47;;;6.00;99.90;;;;;;4916317;29;20099;-83
2023/04/14 05:58:30;;;;;;;14.05;4.60;;;6.20;99.90;;;;;;4916581;29;20497;-83
2023/04/14 06:00:56;;;;;;;12.10;4.20;;;6.50;99.90;;;;;;4916242;29;20048;-83
2023/04/14 06:03:22;;;;;;;11.45;4.18;;;6.90;99.90;;;;;;4916484;29;20052;-83
2023/04/14 06:05:49;;;;;;;11.32;3.97;;;7.60;99.90;;;;;;4916510;29;20059;-81
2023/04/14 06:08:15;;;;;;;10.48;3.90;;;8.10;99.90;;;;;;4900628;29;20090;-83
2023/04/14 06:10:40;;;;;;;9.13;3.47;;;8.40;99.90;;;;;;4916203;29;20080;-81
2023/04/14 06:13:07;;;;;;;8.98;3.83;;;8.60;99.90;;;;;;4916380;29;20491;-81
2023/04/14 06:15:33;;;;;;;9.07;3.60;;;9.20;99.90;;;;;;4916145;29;20091;-81
2023/04/14 06:17:58;;;;;;;9.50;3.40;;;9.90;99.90;;;;;;4900188;29;20084;-81
2023/04/14 06:20:24;;;;;;;9.35;3.30;;;10.50;99.90;;;;;;4916236;29;20051;-81
2023/04/14 06:22:50;;;;;;;8.75;3.40;;;11.00;99.90;;;;;;4945291;29;20448;-81
2023/04/14 06:25:16;;;;;;;10.82;3.30;;;11.90;99.90;;;;;;4935207;29;20120;-81
2023/04/14 06:27:42;;;;;;;10.40;3.30;;;11.80;99.90;;;;;;4935211;29;20443;-81
2023/04/14 06:30:08;;;;;;;8.75;2.90;;;12.10;99.90;;;;;;4935234;29;20051;-81
2023/04/14 06:32:34;;;;;;;9.07;3.08;;;12.40;99.90;;;;;;4935209;29;20147;-82
2023/04/14 06:35:00;;;;;;;10.40;2.90;;;13.00;99.90;;;;;;4919352;29;20134;-81
2023/04/14 06:37:26;;;;;;;8.07;2.63;;;13.40;99.90;;;;;;4935160;29;20055;-81
2023/04/14 06:39:51;;;;;;;9.07;2.80;;;13.90;99.90;;;;;;4919315;29;20059;-81
2023/04/14 06:42:17;;;;;;;8.40;2.70;;;14.50;97.90;;;;;;4918931;29;20050;-81
2023/04/14 06:44:43;;;;;;;8.25;2.72;;;14.90;97.00;;;;;;4935017;29;20369;-81
2023/04/14 06:47:08;;;;;;;8.25;2.47;;;15.00;95.40;;;;;;4934834;29;20090;-81
2023/04/14 06:49:35;;;;;;;8.10;2.70;;;14.90;95.00;;;;;;4934758;29;20047;-81
2023/04/14 06:52:02;;;;;;;9.82;2.83;;;15.00;90.40;;;;;;4934874;29;20060;-81
2023/04/14 06:54:30;;;;;;;6.40;2.13;;;15.40;90.00;;;;;;4919235;29;20385;-81
2023/04/14 06:56:56;;;;;;;8.32;2.60;;;15.30;91.10;;;;;;4934606;29;20127;-81
2023/04/14 06:59:26;;;;;;;7.68;2.65;;;15.30;90.20;;;;;;4919135;29;20103;-81
2023/04/14 07:01:52;;;;;;;8.95;2.80;;;15.70;89.60;;;;;;4934693;29;20052;-81
2023/04/14 07:04:18;;;;;;;8.68;2.53;;;16.10;88.00;;;;;;4919123;29;20120;-81
2023/04/14 07:06:44;;;;;;;8.18;2.55;;;16.50;85.70;;;;;;4918867;29;20055;-81
2023/04/14 07:09:09;;;;;;;8.65;2.80;;;16.90;86.40;;;;;;4934331;29;20043;-81
2023/04/14 07:11:35;;;;;;;8.45;2.50;;;17.30;81.90;;;;;;4934814;29;20063;-81
2023/04/14 07:14:01;;;;;;;7.28;2.65;;;17.50;79.40;;;;;;4918947;29;20052;-81
2023/04/14 07:16:26;;;;;;;8.27;2.60;;;17.30;78.50;;;;;;4919037;29;20098;-81
2023/04/14 07:18:52;;;;;;;8.52;2.95;;;17.60;78.50;;;;;;4934770;29;20062;-81
2023/04/14 07:21:18;;;;;;;9.48;2.88;;;17.60;76.50;;;;;;4934578;29;20048;-81
2023/04/14 07:23:44;;;;;;;7.45;2.50;;;17.80;78.00;;;;;;4918701;29;20480;-81
2023/04/14 07:26:09;;;;;;;8.40;2.83;;;17.20;73.60;;;;;;4918961;29;20048;-81
2023/04/14 07:28:36;;;;;;;8.68;2.67;;;17.20;78.30;;;;;;4935387;29;20047;-81
2023/04/14 07:31:07;;;;;;;8.77;2.60;;;16.90;78.50;;;;;;4938125;29;20480;-81
2023/04/14 07:33:34;;;;;;;7.35;2.80;;;17.00;80.60;;;;;;4938044;29;20110;-81
2023/04/14 07:36:03;;;;;;;8.20;2.70;;;16.80;77.50;;;;;;4937926;29;20052;-82
2023/04/14 07:38:32;;;;;;;7.97;2.40;;;16.80;81.40;;;;;;4922234;29;20154;-81
2023/04/14 07:40:59;;;;;;;9.82;2.53;;;17.10;79.60;;;;;;4937750;29;20115;-81
2023/04/14 07:43:24;;;;;;;7.40;2.72;;;16.80;78.20;;;;;;4937558;29;20055;-82
2023/04/14 07:45:53;;;;;;;8.30;2.40;;;17.20;78.80;;;;;;4937468;29;20130;-82
2023/04/14 07:48:20;;;;;;;8.75;2.33;;;17.00;75.90;;;;;;4938077;29;20079;-82
2023/04/14 07:50:47;;;;;;;8.93;2.58;;;16.80;73.70;;;;;;4938337;29;20114;-82
2023/04/14 07:53:13;;;;;;;7.57;2.28;;;16.10;75.50;;;;;;4937839;29;20448;-82
2023/04/14 07:55:38;;;;;;;7.47;2.60;;;16.50;80.40;;;;;;4938550;29;20051;-82
2023/04/14 07:58:04;;;;;;;8.90;2.80;;;16.50;75.80;;;;;;4938802;29;20044;-82
2023/04/14 08:00:30;;;;;;;7.90;2.10;;;16.60;77.60;;;;;;4937468;29;20107;-82
2023/04/14 08:02:56;;;;;;;8.40;2.40;;;16.80;76.10;;;;;;4921483;29;20055;-82
2023/04/14 08:05:22;;;;;;;9.32;2.53;;;16.80;76.60;;;;;;4943295;29;20048;-82
2023/04/14 08:07:48;;;;;;;8.82;2.28;;;16.80;76.00;;;;;;4945015;29;20055;-82
2023/04/14 08:10:14;;;;;;;7.13;2.13;;;16.80;73.60;;;;;;4941341;29;20048;-83
2023/04/14 08:12:40;;;;;;;7.10;2.25;;;16.10;76.20;;;;;;4937724;29;20058;-83
2023/04/14 08:15:06;;;;;;;7.80;2.08;;;16.30;76.70;;;;;;4922256;29;20051;-82
2023/04/14 08:17:32;;;;;;;5.95;2.03;;;16.30;72.30;;;;;;4937891;29;20039;-82
2023/04/14 08:19:57;;;;;;;8.90;2.13;;;16.00;72.30;;;;;;4921900;29;20158;-82
2023/04/14 08:22:24;;;;;;;7.00;1.90;;;16.00;71.20;;;;;;4939127;29;20044;-83
2023/04/14 08:24:50;;;;;;;6.85;1.80;;;16.00;74.80;;;;;;4938961;29;20118;-82
2023/04/14 08:27:16;;;;;;;7.72;1.90;;;16.10;73.70;;;;;;4922693;29;20083;-83
2023/04/14 08:29:42;;;;;;;9.80;2.40;;;16.20;73.00;;;;;;4922944;29;20471;-83
2023/04/14 08:32:07;;;;;;;8.13;2.20;;;16.40;73.70;;;;;;4921852;29;20056;-83
2023/04/14 08:34:33;;;;;;;11.07;2.30;;;16.30;72.50;;;;;;4937155;29;20047;-82
2023/04/14 08:36:59;;;;;;;8.95;1.80;;;16.30;73.90;;;;;;4922289;29;20051;-82
2023/04/14 08:39:26;;;;;;;8.48;2.08;;;16.30;68.30;;;;;;4925168;29;20052;-83
2023/04/14 08:41:53;;;;;;;8.07;2.42;;;16.50;70.90;;;;;;4938836;29;20098;-82
2023/04/14 08:44:20;;;;;;;9.35;2.47;;;16.40;69.30;;;;;;4938689;29;20182;-83
2023/04/14 08:46:51;;;;;;;7.82;1.77;;;16.10;71.00;;;;;;4924928;29;20059;-83
2023/04/14 08:49:27;;;;;;;9.25;2.00;;;16.00;62.20;;;;;;4949027;29;20074;-83
2023/04/14 08:51:54;;;;;;;9.25;2.20;;;15.50;63.40;;;;;;4931642;29;20051;-84
2023/04/14 08:54:20;;;;;;;7.57;1.95;;;15.80;66.70;;;;;;4948638;29;20128;-83
2023/04/14 08:56:47;;;;;;;8.65;1.90;;;15.80;65.80;;;;;;4945425;29;20047;-83
2023/04/14 08:59:13;;;;;;;7.28;1.60;;;15.90;65.50;;;;;;4949118;29;20058;-84
2023/04/14 09:01:39;;;;;;;7.40;1.88;;;15.80;65.20;;;;;;4955176;29;20054;-84
2023/04/14 09:04:06;;;;;;;7.35;1.80;;;16.00;66.20;;;;;;4941960;29;20055;-83
2023/04/14 09:06:33;;;;;;;7.50;2.10;;;15.90;64.00;;;;;;4926854;29;20055;-84
2023/04/14 09:09:04;;;;;;;8.18;2.20;;;15.90;64.40;;;;;;4942518;29;20058;-83
2023/04/14 09:11:30;;;;;;;7.63;2.15;;;15.90;66.90;;;;;;4938749;29;20052;-83
2023/04/14 09:13:58;;;;;;;8.10;2.33;;;16.00;66.00;;;;;;4937453;29;20417;-82
2023/04/14 09:16:25;;;;;;;10.00;2.25;;;16.20;65.60;;;;;;4937761;29;20056;-83
2023/04/14 09:18:55;;;;;;;9.40;2.10;;;16.30;63.40;;;;;;4936863;29;20131;-84
2023/04/14 09:21:22;;;;;;;8.30;2.38;;;15.90;64.90;;;;;;4906486;29;20499;-83
2023/04/14 09:23:48;;;;;;;10.07;2.50;;;16.00;62.90;;;;;;4937353;29;20492;-83
2023/04/14 09:26:14;;;;;;;8.05;2.15;;;15.60;67.80;;;;;;4944736;29;20047;-85
2023/04/14 09:28:40;;;;;;;9.27;2.60;;;15.80;71.60;;;;;;4941423;29;20066;-83
2023/04/14 09:31:07;;;;;;;8.35;2.33;;;16.00;68.70;;;;;;4937692;29;20407;-82
2023/04/14 09:33:57;;;;;;;7.65;2.30;;;16.10;73.40;;;;;;4937448;29;20055;-82
2023/04/14 09:36:25;;;;;;;10.55;2.40;;;15.90;70.50;;;;;;4936547;29;20430;-82
2023/04/14 09:38:51;;;;;;;10.52;2.25;;;15.90;68.00;;;;;;4922964;29;20055;-82
2023/04/14 09:41:20;;;;;;;8.95;2.25;;;16.00;66.30;;;;;;4949450;29;20072;-83
2023/04/14 09:43:46;;;;;;;7.63;2.15;;;16.10;68.60;;;;;;4953485;29;20048;-82
2023/04/14 09:46:12;;;;;;;9.07;2.22;;;16.10;68.90;;;;;;4941069;29;20440;-82
2023/04/14 09:48:54;;;;;;;8.73;2.38;;;15.90;73.30;;;;;;4937908;29;20048;-82
2023/04/14 09:51:22;;;;;;;9.57;2.50;;;16.00;70.60;;;;;;4937299;29;20496;-82
2023/04/14 09:53:51;;;;;;;8.00;2.20;;;16.00;71.00;;;;;;4939002;29;20044;-83
2023/04/14 09:56:17;;;;;;;9.95;2.72;;;16.30;70.00;;;;;;4939308;29;20142;-83
2023/04/14 09:58:44;;;;;;;8.80;2.20;;;16.30;68.20;;;;;;4939717;29;20471;-83
2023/04/14 10:01:21;;;;;;;10.45;2.63;;;16.40;69.20;;;;;;4939536;29;20054;-83
2023/04/14 10:03:51;;;;;;;10.23;2.97;;;16.60;66.30;;;;;;4940686;29;20047;-82
2023/04/14 10:06:21;;;;;;;7.57;2.50;;;16.70;72.60;;;;;;4939281;29;20062;-83
2023/04/14 10:08:49;;;;;;;7.43;2.60;;;16.80;66.80;;;;;;4941141;29;20063;-83
2023/04/14 10:11:24;;;;;;;9.05;2.90;;;16.70;66.90;;;;;;4932124;29;20066;-84
2023/04/14 10:13:53;;;;;;;10.15;2.80;;;16.70;68.80;;;;;;4921976;29;20059;-83
2023/04/14 10:16:20;;;;;;;8.75;2.58;;;16.80;70.70;;;;;;4956302;28;20051;-83
2023/04/14 10:18:46;;;;;;;8.30;2.60;;;16.90;68.10;;;;;;4933575;29;20054;-83
2023/04/14 10:21:13;;;;;;;8.07;2.60;;;16.90;67.30;;;;;;4948767;29;20048;-82
2023/04/14 10:23:40;;;;;;;9.45;2.42;;;17.00;67.00;;;;;;4932854;29;20111;-83
2023/04/14 10:26:11;;;;;;;8.30;2.28;;;17.00;71.20;;;;;;4933405;29;20048;-82
2023/04/14 10:28:41;;;;;;;9.18;2.63;;;16.90;65.80;;;;;;4948048;29;20044;-83
2023/04/14 10:31:16;;;;;;;11.20;3.10;;;16.70;66.80;;;;;;4949460;29;20047;-83
2023/04/14 10:33:42;;;;;;;7.70;2.35;;;16.60;74.80;;;;;;4952539;29;20079;-83
2023/04/14 10:36:08;;;;;;;9.65;2.97;;;16.40;68.10;;;;;;4937916;29;20028;-83
2023/04/14 10:38:45;;;;;;;8.43;2.92;;;16.40;69.40;;;;;;4953927;28;20048;-83
2023/04/14 10:41:14;;;;;;;8.00;2.90;;;16.20;69.50;;;;;;4954426;29;20062;-85
2023/04/14 10:43:40;;;;;;;9.73;3.00;;;16.30;72.10;;;;;;4951185;29;20032;-83
2023/04/14 10:46:09;;;;;;;7.82;2.80;;;16.30;70.50;;;;;;4939140;29;20419;-83
2023/04/14 10:48:37;;;;;;;7.93;2.63;;;16.50;79.40;;;;;;4947599;29;20055;-83
2023/04/14 10:51:04;;;;;;;9.90;3.10;;;16.30;76.10;;;;;;4924854;28;20062;-83
2023/04/14 10:53:45;;;;;;;9.13;3.00;;;16.30;77.70;;;;;;4987329;28;20098;-84
2023/04/14 10:56:11;;;;;;;9.73;3.10;;;16.30;71.20;;;;;;4986883;28;20124;-83
2023/04/14 10:58:37;;;;;;;7.20;2.35;;;16.50;73.90;;;;;;4979237;28;20046;-83
2023/04/14 11:01:30;;;;;;;6.97;2.10;;;16.50;68.00;;;;;;4981629;28;20446;-85
2023/04/14 11:03:57;;;;;;;6.93;2.10;;;16.30;65.20;;;;;;4967088;28;20105;-83
2023/04/14 11:06:51;;;;;;;8.57;2.42;;;15.80;62.50;;;;;;4983287;28;20043;-83
2023/04/14 11:09:36;;;;;;;7.68;2.40;;;15.50;68.30;;;;;;4969066;28;20054;-84
2023/04/14 11:12:04;;;;;;;7.85;2.72;;;15.60;64.80;;;;;;4983314;28;20058;-84
2023/04/14 11:14:32;;;;;;;7.28;2.45;;;15.70;66.50;;;;;;4990955;28;20051;-84
2023/04/14 11:17:03;;;;;;;6.45;1.85;;;15.80;70.50;;;;;;4987248;28;20046;-85
2023/04/14 11:19:29;;;;;;;8.02;2.40;;;15.80;68.30;;;;;;4984792;28;20042;-84
2023/04/14 11:21:56;;;;;;;6.13;1.90;;;15.50;68.00;;;;;;5004049;28;20078;-84
2023/04/14 11:24:23;;;;;;;7.30;2.10;;;15.30;71.30;;;;;;4971594;28;20133;-83
2023/04/14 11:26:56;;;;;;;7.18;1.92;;;15.20;61.80;;;;;;4991805;28;20051;-84
2023/04/14 11:29:25;;;;;;;6.40;1.90;;;15.30;65.60;;;;;;4990096;28;20058;-84
2023/04/14 11:32:04;;;;;;;5.78;1.50;;;15.50;67.30;;;;;;4988829;28;20062;-86
2023/04/14 11:34:31;;;;;;;7.68;2.50;;;15.80;66.90;;;;;;4991329;28;20078;-85
2023/04/14 11:37:01;;;;;;;9.52;2.83;;;15.50;72.00;;;;;;4990729;28;20103;-85
2023/04/14 11:39:35;;;;;;;9.35;3.10;;;14.70;69.10;;;;;;4988408;28;20094;-85
2023/04/14 11:42:04;;;;;;;9.43;2.80;;;14.90;69.20;;;;;;4993965;28;20114;-84
2023/04/14 11:44:30;;;;;;;9.10;2.80;;;14.10;71.60;;;;;;4998238;28;20039;-84
2023/04/14 11:46:56;;;;;;;8.57;2.80;;;14.90;66.10;;;;;;5031242;28;20073;-85
2023/04/14 11:49:44;;;;;;;9.40;2.88;;;14.80;71.50;;;;;;4996717;28;20069;-84
2023/04/14 11:52:16;;;;;;;8.98;2.95;;;13.90;71.50;;;;;;5024126;28;20109;-84
2023/04/14 11:54:41;;;;;;;7.45;2.33;;;14.50;68.20;;;;;;4996486;28;20055;-85
2023/04/14 11:57:09;;;;;;;8.55;3.00;;;15.20;72.40;;;;;;5002352;28;20046;-86
2023/04/14 11:59:46;;;;;;;8.23;2.83;;;15.30;72.80;;;;;;4986177;28;20038;-85
2023/04/14 12:02:24;;;;;;;10.95;3.08;;;15.10;71.70;;;;;;4991984;28;20047;-85
2023/04/14 12:04:56;;;;;;;10.25;3.13;;;14.10;72.50;;;;;;5026635;28;20045;-84
2023/04/14 12:07:28;;;;;;;8.60;3.03;;;15.70;70.50;;;;;;5011547;28;20038;-84
2023/04/14 12:09:56;;;;;;;8.93;3.47;;;15.10;71.90;;;;;;5011290;28;20065;-85
2023/04/14 12:12:27;;;;;;;8.32;3.20;;;15.30;67.90;;;;;;5027710;28;20062;-85
2023/04/14 12:14:56;;;;;;;6.78;2.63;;;15.80;69.50;;;;;;5010887;28;20063;-85
2023/04/14 12:17:34;;;;;;;9.43;2.92;;;15.70;67.40;;;;;;4996414;28;20062;-85
2023/04/14 12:20:06;;;;;;;8.23;3.00;;;15.00;69.40;;;;;;5011033;28;20063;-85
2023/04/14 12:22:35;;;;;;;8.20;2.80;;;15.50;70.30;;;;;;5005019;28;20050;-84
2023/04/14 12:25:11;;;;;;;8.25;3.63;;;14.40;67.60;;;;;;4975026;28;20062;-85
2023/04/14 12:27:37;;;;;;;8.88;2.97;;;15.50;73.50;;;;;;4976663;28;20049;-86
2023/04/14 12:30:08;;;;;;;9.30;3.50;;;14.90;72.60;;;;;;4974718;28;20043;-85
2023/04/14 12:32:42;;;;;;;10.77;3.83;;;14.90;76.80;;;;;;4989586;28;20062;-85
2023/04/14 12:35:12;;;;;;;11.48;3.80;;;14.70;77.30;;;;;;4961322;28;20043;-85
2023/04/14 12:37:57;;;;;;;9.88;3.67;;;14.60;82.50;;;;;;4993556;28;20055;-85
2023/04/14 12:40:42;;;;;;;9.02;3.53;;;14.80;77.30;;;;;;4984466;28;20146;-84
2023/04/14 12:43:08;;;;;;;9.35;3.88;;;15.10;75.40;;;;;;4969836;28;20133;-85
2023/04/14 12:45:45;;;;;;;12.52;2.92;;;15.20;73.40;;;;;;4981090;28;20058;-85
2023/04/14 12:48:12;;;;;;;8.30;3.35;;;14.00;70.10;;;;;;4982996;28;20089;-84
2023/04/14 12:50:38;;;;;;;9.82;3.20;;;15.40;68.20;;;;;;4963284;28;20060;-85
2023/04/14 12:53:27;;;;;;;8.45;3.38;;;15.50;69.30;;;;;;4982711;28;20097;-85
2023/04/14 12:56:09;;;;;;;9.18;3.75;;;15.70;71.10;;;;;;4981455;28;20486;-84
2023/04/14 12:58:36;;;;;;;;;;;16.10;75.40;;;;;;4982796;28;20074;-84